sensor_id;sensor_type;location;lat;lon;timestamp;pressure;altitude;pressure_sealevel;temperature;humidity
22481;BME280;11407;56.964;-2.212;2022-08-25T00:01:38;101590.13;;;24.59;39.30
22481;BME280;11407;56.964;-2.212;2022-08-25T00:04:07;101590.41;;;24.64;39.20
22481;BME280;11407;56.964;-2.212;2022-08-25T00:06:34;101596.06;;;24.54;38.98
22481;BME280;11407;56.964;-2.212;2022-08-25T00:08:59;101609.91;;;24.51;38.95
22481;BME280;11407;56.964;-2.212;2022-08-25T00:11:28;101615.88;;;24.61;38.97
22481;BME280;11407;56.964;-2.212;2022-08-25T00:13:57;101607.97;;;24.60;39.06
22481;BME280;11407;56.964;-2.212;2022-08-25T00:16:24;101618.28;;;24.56;39.01
22481;BME280;11407;56.964;-2.212;2022-08-25T00:18:53;101629.25;;;24.55;39.70
22481;BME280;11407;56.964;-2.212;2022-08-25T00:21:20;101624.97;;;24.46;39.25
22481;BME280;11407;56.964;-2.212;2022-08-25T00:23:46;101618.41;;;24.40;39.42
22481;BME280;11407;56.964;-2.212;2022-08-25T00:26:12;101620.75;;;24.43;39.52
22481;BME280;11407;56.964;-2.212;2022-08-25T00:28:37;101616.56;;;24.41;39.60
22481;BME280;11407;56.964;-2.212;2022-08-25T00:31:05;101620.09;;;24.41;39.23
22481;BME280;11407;56.964;-2.212;2022-08-25T00:33:31;101622.69;;;24.35;39.36
22481;BME280;11407;56.964;-2.212;2022-08-25T00:35:57;101624.91;;;24.31;39.58
22481;BME280;11407;56.964;-2.212;2022-08-25T00:38:24;101619.88;;;24.28;39.62
22481;BME280;11407;56.964;-2.212;2022-08-25T00:40:50;101612.16;;;24.25;40.01
22481;BME280;11407;56.964;-2.212;2022-08-25T00:43:57;101616.34;;;24.28;40.40
22481;BME280;11407;56.964;-2.212;2022-08-25T00:46:27;101610.97;;;24.28;40.12
22481;BME280;11407;56.964;-2.212;2022-08-25T00:49:00;101619.22;;;24.26;40.33
22481;BME280;11407;56.964;-2.212;2022-08-25T00:51:50;101618.59;;;24.24;40.74
22481;BME280;11407;56.964;-2.212;2022-08-25T00:54:22;101624.03;;;24.16;40.50
22481;BME280;11407;56.964;-2.212;2022-08-25T00:56:50;101630.75;;;23.98;40.40
22481;BME280;11407;56.964;-2.212;2022-08-25T00:59:19;101643.66;;;24.02;40.55
22481;BME280;11407;56.964;-2.212;2022-08-25T01:01:46;101648.66;;;23.91;40.57
22481;BME280;11407;56.964;-2.212;2022-08-25T01:04:12;101658.22;;;24.16;40.11
22481;BME280;11407;56.964;-2.212;2022-08-25T01:06:40;101659.13;;;24.08;40.82
22481;BME280;11407;56.964;-2.212;2022-08-25T01:09:09;101658.88;;;23.95;40.69
22481;BME280;11407;56.964;-2.212;2022-08-25T01:11:35;101650.47;;;23.98;40.68
22481;BME280;11407;56.964;-2.212;2022-08-25T01:14:02;101647.50;;;24.08;40.22
22481;BME280;11407;56.964;-2.212;2022-08-25T01:16:33;101651.25;;;24.07;40.49
22481;BME280;11407;56.964;-2.212;2022-08-25T01:19:00;101654.72;;;23.93;40.63
22481;BME280;11407;56.964;-2.212;2022-08-25T01:21:27;101655.66;;;24.00;40.56
22481;BME280;11407;56.964;-2.212;2022-08-25T01:23:55;101657.69;;;23.98;40.68
22481;BME280;11407;56.964;-2.212;2022-08-25T01:26:28;101652.13;;;23.99;40.73
22481;BME280;11407;56.964;-2.212;2022-08-25T01:28:54;101654.59;;;23.86;40.71
22481;BME280;11407;56.964;-2.212;2022-08-25T01:31:39;101647.09;;;23.66;41.35
22481;BME280;11407;56.964;-2.212;2022-08-25T01:34:06;101655.06;;;23.90;40.99
22481;BME280;11407;56.964;-2.212;2022-08-25T01:36:33;101657.88;;;23.96;40.72
22481;BME280;11407;56.964;-2.212;2022-08-25T01:38:58;101652.91;;;23.85;40.56
22481;BME280;11407;56.964;-2.212;2022-08-25T01:43:59;101653.81;;;23.70;41.06
22481;BME280;11407;56.964;-2.212;2022-08-25T01:46:25;101657.53;;;23.69;41.18
22481;BME280;11407;56.964;-2.212;2022-08-25T01:48:51;101646.72;;;23.47;41.27
22481;BME280;11407;56.964;-2.212;2022-08-25T01:51:19;101658.41;;;23.62;40.81
22481;BME280;11407;56.964;-2.212;2022-08-25T01:53:45;101661.16;;;23.54;40.80
22481;BME280;11407;56.964;-2.212;2022-08-25T01:56:13;101668.25;;;23.47;41.07
22481;BME280;11407;56.964;-2.212;2022-08-25T01:58:45;101674.09;;;23.58;40.80
22481;BME280;11407;56.964;-2.212;2022-08-25T02:01:20;101671.41;;;23.50;40.96
22481;BME280;11407;56.964;-2.212;2022-08-25T02:03:49;101667.56;;;23.53;40.63
22481;BME280;11407;56.964;-2.212;2022-08-25T02:06:23;101670.81;;;23.40;40.79
22481;BME280;11407;56.964;-2.212;2022-08-25T02:08:51;101665.78;;;23.37;40.73
22481;BME280;11407;56.964;-2.212;2022-08-25T02:11:17;101663.78;;;23.31;40.90
22481;BME280;11407;56.964;-2.212;2022-08-25T02:13:42;101676.28;;;23.16;40.96
22481;BME280;11407;56.964;-2.212;2022-08-25T02:16:09;101660.84;;;23.10;41.22
22481;BME280;11407;56.964;-2.212;2022-08-25T02:18:38;101666.91;;;22.96;41.36
22481;BME280;11407;56.964;-2.212;2022-08-25T02:21:04;101661.53;;;22.96;41.54
22481;BME280;11407;56.964;-2.212;2022-08-25T02:23:29;101662.50;;;23.03;41.00
22481;BME280;11407;56.964;-2.212;2022-08-25T02:25:55;101669.75;;;23.03;41.41
22481;BME280;11407;56.964;-2.212;2022-08-25T02:28:21;101669.44;;;23.06;41.17
22481;BME280;11407;56.964;-2.212;2022-08-25T02:30:46;101669.75;;;23.03;40.94
22481;BME280;11407;56.964;-2.212;2022-08-25T02:33:12;101673.78;;;22.99;41.22
22481;BME280;11407;56.964;-2.212;2022-08-25T02:35:38;101681.56;;;22.94;41.17
22481;BME280;11407;56.964;-2.212;2022-08-25T02:38:04;101689.47;;;22.87;41.30
22481;BME280;11407;56.964;-2.212;2022-08-25T02:40:29;101678.88;;;22.86;41.41
22481;BME280;11407;56.964;-2.212;2022-08-25T02:42:55;101675.88;;;22.81;41.36
22481;BME280;11407;56.964;-2.212;2022-08-25T02:45:21;101675.00;;;22.80;41.23
22481;BME280;11407;56.964;-2.212;2022-08-25T02:47:47;101668.13;;;22.78;41.43
22481;BME280;11407;56.964;-2.212;2022-08-25T02:50:13;101681.63;;;22.62;41.39
22481;BME280;11407;56.964;-2.212;2022-08-25T02:52:39;101676.75;;;22.66;41.42
22481;BME280;11407;56.964;-2.212;2022-08-25T02:55:07;101679.75;;;22.63;41.63
22481;BME280;11407;56.964;-2.212;2022-08-25T02:57:33;101677.91;;;22.63;41.49
22481;BME280;11407;56.964;-2.212;2022-08-25T02:59:59;101680.59;;;22.63;41.04
22481;BME280;11407;56.964;-2.212;2022-08-25T03:02:25;101682.97;;;22.58;41.61
22481;BME280;11407;56.964;-2.212;2022-08-25T03:04:52;101687.50;;;22.58;41.34
22481;BME280;11407;56.964;-2.212;2022-08-25T03:07:19;101686.47;;;22.59;41.55
22481;BME280;11407;56.964;-2.212;2022-08-25T03:09:46;101682.47;;;22.55;41.25
22481;BME280;11407;56.964;-2.212;2022-08-25T03:12:11;101692.56;;;22.53;41.40
22481;BME280;11407;56.964;-2.212;2022-08-25T03:14:38;101685.16;;;22.47;41.48
22481;BME280;11407;56.964;-2.212;2022-08-25T03:17:05;101689.34;;;22.41;41.45
22481;BME280;11407;56.964;-2.212;2022-08-25T03:19:30;101684.00;;;22.33;41.25
22481;BME280;11407;56.964;-2.212;2022-08-25T03:21:56;101680.28;;;22.26;41.47
22481;BME280;11407;56.964;-2.212;2022-08-25T03:24:24;101681.63;;;22.14;41.91
22481;BME280;11407;56.964;-2.212;2022-08-25T03:26:51;101679.06;;;22.13;41.70
22481;BME280;11407;56.964;-2.212;2022-08-25T03:29:28;101680.09;;;22.20;42.22
22481;BME280;11407;56.964;-2.212;2022-08-25T03:31:54;101681.75;;;22.05;41.61
22481;BME280;11407;56.964;-2.212;2022-08-25T03:34:22;101676.41;;;21.97;42.01
22481;BME280;11407;56.964;-2.212;2022-08-25T03:36:50;101672.53;;;21.99;42.01
22481;BME280;11407;56.964;-2.212;2022-08-25T03:39:19;101683.78;;;22.03;41.79
22481;BME280;11407;56.964;-2.212;2022-08-25T03:41:45;101675.88;;;21.93;41.80
22481;BME280;11407;56.964;-2.212;2022-08-25T03:44:12;101674.19;;;21.84;41.85
22481;BME280;11407;56.964;-2.212;2022-08-25T03:46:43;101673.69;;;21.89;42.39
22481;BME280;11407;56.964;-2.212;2022-08-25T03:49:12;101675.88;;;21.85;42.03
22481;BME280;11407;56.964;-2.212;2022-08-25T03:51:44;101676.69;;;21.70;42.58
22481;BME280;11407;56.964;-2.212;2022-08-25T03:54:12;101678.94;;;21.49;42.63
22481;BME280;11407;56.964;-2.212;2022-08-25T03:56:38;101680.25;;;21.45;42.66
22481;BME280;11407;56.964;-2.212;2022-08-25T03:59:03;101676.50;;;21.64;42.21
22481;BME280;11407;56.964;-2.212;2022-08-25T04:01:30;101675.84;;;21.70;41.98
22481;BME280;11407;56.964;-2.212;2022-08-25T04:03:55;101675.50;;;21.65;41.82
22481;BME280;11407;56.964;-2.212;2022-08-25T04:06:21;101673.81;;;21.64;42.06
22481;BME280;11407;56.964;-2.212;2022-08-25T04:08:48;101681.50;;;21.59;42.17
22481;BME280;11407;56.964;-2.212;2022-08-25T04:11:16;101676.81;;;21.61;42.15
22481;BME280;11407;56.964;-2.212;2022-08-25T04:13:42;101680.28;;;21.53;42.44
22481;BME280;11407;56.964;-2.212;2022-08-25T04:16:11;101674.56;;;21.48;42.23
22481;BME280;11407;56.964;-2.212;2022-08-25T04:18:37;101678.94;;;21.49;42.26
22481;BME280;11407;56.964;-2.212;2022-08-25T04:21:04;101678.56;;;21.44;42.60
22481;BME280;11407;56.964;-2.212;2022-08-25T04:23:31;101679.56;;;21.43;42.51
22481;BME280;11407;56.964;-2.212;2022-08-25T04:25:56;101673.69;;;21.40;42.31
22481;BME280;11407;56.964;-2.212;2022-08-25T04:28:22;101677.03;;;21.34;42.21
22481;BME280;11407;56.964;-2.212;2022-08-25T04:30:47;101678.53;;;21.28;42.44
22481;BME280;11407;56.964;-2.212;2022-08-25T04:33:13;101676.84;;;21.27;42.50
22481;BME280;11407;56.964;-2.212;2022-08-25T04:35:38;101676.97;;;21.18;42.85
22481;BME280;11407;56.964;-2.212;2022-08-25T04:38:05;101683.53;;;21.23;42.33
22481;BME280;11407;56.964;-2.212;2022-08-25T04:40:31;101679.28;;;21.13;42.97
22481;BME280;11407;56.964;-2.212;2022-08-25T04:42:57;101675.28;;;21.17;42.64
22481;BME280;11407;56.964;-2.212;2022-08-25T04:45:23;101670.28;;;21.22;42.73
22481;BME280;11407;56.964;-2.212;2022-08-25T04:47:48;101676.69;;;21.37;42.25
22481;BME280;11407;56.964;-2.212;2022-08-25T04:50:13;101679.72;;;21.34;42.14
22481;BME280;11407;56.964;-2.212;2022-08-25T04:52:39;101681.72;;;21.32;42.46
22481;BME280;11407;56.964;-2.212;2022-08-25T04:55:05;101686.72;;;21.27;42.38
22481;BME280;11407;56.964;-2.212;2022-08-25T04:57:30;101687.91;;;21.32;42.65
22481;BME280;11407;56.964;-2.212;2022-08-25T04:59:56;101681.72;;;21.32;42.59
22481;BME280;11407;56.964;-2.212;2022-08-25T05:02:21;101674.50;;;21.32;42.59
22481;BME280;11407;56.964;-2.212;2022-08-25T05:04:49;101680.03;;;21.31;42.72
22481;BME280;11407;56.964;-2.212;2022-08-25T05:07:15;101676.38;;;21.32;42.47
22481;BME280;11407;56.964;-2.212;2022-08-25T05:09:40;101674.38;;;21.34;42.72
22481;BME280;11407;56.964;-2.212;2022-08-25T05:12:06;101675.00;;;21.28;42.52
22481;BME280;11407;56.964;-2.212;2022-08-25T05:14:32;101668.81;;;21.27;42.56
22481;BME280;11407;56.964;-2.212;2022-08-25T05:16:57;101667.44;;;21.23;42.81
22481;BME280;11407;56.964;-2.212;2022-08-25T05:19:23;101660.91;;;21.26;42.77
22481;BME280;11407;56.964;-2.212;2022-08-25T05:21:49;101667.16;;;21.34;42.61
22481;BME280;11407;56.964;-2.212;2022-08-25T05:24:15;101664.63;;;21.33;42.18
22481;BME280;11407;56.964;-2.212;2022-08-25T05:26:41;101663.63;;;21.34;42.81
22481;BME280;11407;56.964;-2.212;2022-08-25T05:29:06;101663.94;;;21.31;42.97
22481;BME280;11407;56.964;-2.212;2022-08-25T05:31:32;101676.69;;;21.37;42.69
22481;BME280;11407;56.964;-2.212;2022-08-25T05:33:58;101669.63;;;21.28;42.80
22481;BME280;11407;56.964;-2.212;2022-08-25T05:36:26;101670.94;;;21.24;43.22
22481;BME280;11407;56.964;-2.212;2022-08-25T05:38:52;101669.38;;;21.05;43.41
22481;BME280;11407;56.964;-2.212;2022-08-25T05:41:20;101667.75;;;21.20;43.48
22481;BME280;11407;56.964;-2.212;2022-08-25T05:43:49;101663.63;;;21.34;42.85
22481;BME280;11407;56.964;-2.212;2022-08-25T05:46:17;101660.59;;;21.29;43.37
22481;BME280;11407;56.964;-2.212;2022-08-25T05:48:43;101671.34;;;21.37;42.95
22481;BME280;11407;56.964;-2.212;2022-08-25T05:51:09;101663.97;;;21.39;43.07
22481;BME280;11407;56.964;-2.212;2022-08-25T05:53:36;101663.44;;;21.27;43.05
22481;BME280;11407;56.964;-2.212;2022-08-25T05:56:03;101668.13;;;21.25;43.27
22481;BME280;11407;56.964;-2.212;2022-08-25T05:58:29;101656.91;;;21.38;43.15
22481;BME280;11407;56.964;-2.212;2022-08-25T06:00:56;101660.78;;;21.43;43.10
22481;BME280;11407;56.964;-2.212;2022-08-25T06:03:22;101656.53;;;21.25;43.63
22481;BME280;11407;56.964;-2.212;2022-08-25T06:05:48;101654.59;;;21.43;43.24
22481;BME280;11407;56.964;-2.212;2022-08-25T06:08:14;101655.84;;;21.56;42.97
22481;BME280;11407;56.964;-2.212;2022-08-25T06:10:41;101651.41;;;21.39;43.22
22481;BME280;11407;56.964;-2.212;2022-08-25T06:13:07;101655.97;;;21.55;42.91
22481;BME280;11407;56.964;-2.212;2022-08-25T06:15:32;101648.56;;;21.41;43.49
22481;BME280;11407;56.964;-2.212;2022-08-25T06:17:58;101637.75;;;21.66;43.31
22481;BME280;11407;56.964;-2.212;2022-08-25T06:20:28;101635.06;;;21.66;43.36
22481;BME280;11407;56.964;-2.212;2022-08-25T06:22:55;101642.28;;;21.74;43.07
22481;BME280;11407;56.964;-2.212;2022-08-25T06:25:23;101644.97;;;21.82;43.08
22481;BME280;11407;56.964;-2.212;2022-08-25T06:27:49;101654.88;;;21.89;43.03
22481;BME280;11407;56.964;-2.212;2022-08-25T06:30:18;101651.56;;;21.95;43.15
22481;BME280;11407;56.964;-2.212;2022-08-25T06:32:44;101647.34;;;21.84;43.59
22481;BME280;11407;56.964;-2.212;2022-08-25T06:35:12;101647.84;;;21.88;43.43
22481;BME280;11407;56.964;-2.212;2022-08-25T06:37:38;101653.88;;;21.82;43.66
22481;BME280;11407;56.964;-2.212;2022-08-25T06:40:06;101650.22;;;22.07;43.18
22481;BME280;11407;56.964;-2.212;2022-08-25T06:42:32;101651.03;;;22.07;43.05
22481;BME280;11407;56.964;-2.212;2022-08-25T06:44:57;101649.03;;;22.09;43.04
22481;BME280;11407;56.964;-2.212;2022-08-25T06:47:23;101649.91;;;22.10;43.12
22481;BME280;11407;56.964;-2.212;2022-08-25T06:49:48;101639.97;;;21.94;43.47
22481;BME280;11407;56.964;-2.212;2022-08-25T06:52:14;101643.00;;;22.07;43.51
22481;BME280;11407;56.964;-2.212;2022-08-25T06:54:40;101639.78;;;22.12;43.24
22481;BME280;11407;56.964;-2.212;2022-08-25T06:57:06;101644.84;;;22.15;42.96
22481;BME280;11407;56.964;-2.212;2022-08-25T06:59:32;101654.91;;;22.05;43.56
22481;BME280;11407;56.964;-2.212;2022-08-25T07:01:59;101654.72;;;22.06;43.26
22481;BME280;11407;56.964;-2.212;2022-08-25T07:04:24;101649.88;;;22.02;43.45
22481;BME280;11407;56.964;-2.212;2022-08-25T07:06:49;101647.72;;;22.13;43.11
22481;BME280;11407;56.964;-2.212;2022-08-25T07:09:15;101645.88;;;22.38;42.68
22481;BME280;11407;56.964;-2.212;2022-08-25T07:11:41;101650.72;;;22.26;42.92
22481;BME280;11407;56.964;-2.212;2022-08-25T07:14:09;101649.06;;;22.33;43.03
22481;BME280;11407;56.964;-2.212;2022-08-25T07:16:36;101645.34;;;22.10;43.41
22481;BME280;11407;56.964;-2.212;2022-08-25T07:19:02;101654.56;;;22.00;43.57
22481;BME280;11407;56.964;-2.212;2022-08-25T07:21:30;101663.16;;;22.35;42.98
22481;BME280;11407;56.964;-2.212;2022-08-25T07:23:55;101659.78;;;22.09;43.23
22481;BME280;11407;56.964;-2.212;2022-08-25T07:26:25;101654.91;;;22.13;43.67
22481;BME280;11407;56.964;-2.212;2022-08-25T07:28:51;101661.81;;;22.23;43.46
22481;BME280;11407;56.964;-2.212;2022-08-25T07:31:17;101669.34;;;22.12;43.81
22481;BME280;11407;56.964;-2.212;2022-08-25T07:33:42;101671.16;;;21.80;44.84
22481;BME280;11407;56.964;-2.212;2022-08-25T07:36:29;101671.25;;;22.35;44.29
22481;BME280;11407;56.964;-2.212;2022-08-25T07:38:59;101661.78;;;22.63;43.30
22481;BME280;11407;56.964;-2.212;2022-08-25T07:41:28;101666.66;;;22.76;43.41
22481;BME280;11407;56.964;-2.212;2022-08-25T07:43:54;101665.59;;;22.84;43.32
22481;BME280;11407;56.964;-2.212;2022-08-25T07:46:20;101666.09;;;22.88;43.38
22481;BME280;11407;56.964;-2.212;2022-08-25T07:48:45;101671.44;;;23.04;43.29
22481;BME280;11407;56.964;-2.212;2022-08-25T07:51:12;101669.91;;;23.17;43.18
22481;BME280;11407;56.964;-2.212;2022-08-25T07:53:42;101668.72;;;23.20;43.27
22481;BME280;11407;56.964;-2.212;2022-08-25T07:56:12;101663.66;;;23.25;43.83
22481;BME280;11407;56.964;-2.212;2022-08-25T07:58:39;101649.19;;;23.26;43.86
22481;BME280;11407;56.964;-2.212;2022-08-25T08:01:06;101652.41;;;23.21;44.89
22481;BME280;11407;56.964;-2.212;2022-08-25T08:03:32;101651.63;;;23.05;45.59
22481;BME280;11407;56.964;-2.212;2022-08-25T08:05:59;101646.16;;;23.59;44.69
22481;BME280;11407;56.964;-2.212;2022-08-25T08:08:25;101650.47;;;23.98;44.67
22481;BME280;11407;56.964;-2.212;2022-08-25T08:10:51;101652.38;;;23.90;45.06
22481;BME280;11407;56.964;-2.212;2022-08-25T08:13:17;101655.09;;;24.27;44.97
22481;BME280;11407;56.964;-2.212;2022-08-25T08:15:43;101652.03;;;24.52;44.55
22481;BME280;11407;56.964;-2.212;2022-08-25T08:18:09;101655.41;;;24.68;44.54
22481;BME280;11407;56.964;-2.212;2022-08-25T08:20:35;101654.84;;;24.73;44.31
22481;BME280;11407;56.964;-2.212;2022-08-25T08:23:02;101649.53;;;24.65;45.09
22481;BME280;11407;56.964;-2.212;2022-08-25T08:25:27;101658.03;;;24.91;45.27
22481;BME280;11407;56.964;-2.212;2022-08-25T08:27:54;101661.19;;;25.09;44.52
22481;BME280;11407;56.964;-2.212;2022-08-25T08:30:20;101651.44;;;25.22;44.56
22481;BME280;11407;56.964;-2.212;2022-08-25T08:32:46;101658.59;;;25.15;44.75
22481;BME280;11407;56.964;-2.212;2022-08-25T08:35:12;101663.81;;;25.66;44.16
22481;BME280;11407;56.964;-2.212;2022-08-25T08:37:39;101663.84;;;25.87;43.84
22481;BME280;11407;56.964;-2.212;2022-08-25T08:40:08;101670.25;;;26.22;43.68
22481;BME280;11407;56.964;-2.212;2022-08-25T08:42:43;101674.88;;;26.07;43.73
22481;BME280;11407;56.964;-2.212;2022-08-25T08:58:56;101669.91;;;27.07;41.81
22481;BME280;11407;56.964;-2.212;2022-08-25T09:00:57;101662.91;;;27.25;41.21
22481;BME280;11407;56.964;-2.212;2022-08-25T09:06:12;101666.75;;;27.44;41.01
22481;BME280;11407;56.964;-2.212;2022-08-25T09:08:42;101662.63;;;27.48;41.48
22481;BME280;11407;56.964;-2.212;2022-08-25T09:11:13;101659.44;;;27.44;41.32
22481;BME280;11407;56.964;-2.212;2022-08-25T09:22:21;101642.38;;;28.36;39.85
22481;BME280;11407;56.964;-2.212;2022-08-25T09:26:02;101649.47;;;28.37;39.10
22481;BME280;11407;56.964;-2.212;2022-08-25T09:28:21;101645.94;;;28.49;39.31
22481;BME280;11407;56.964;-2.212;2022-08-25T09:31:03;101647.38;;;28.71;38.53
22481;BME280;11407;56.964;-2.212;2022-08-25T09:33:32;101664.28;;;28.79;39.78
22481;BME280;11407;56.964;-2.212;2022-08-25T09:35:58;101652.81;;;28.90;39.45
22481;BME280;11407;56.964;-2.212;2022-08-25T09:38:26;101653.38;;;29.05;39.54
22481;BME280;11407;56.964;-2.212;2022-08-25T09:40:55;101651.41;;;29.32;39.05
22481;BME280;11407;56.964;-2.212;2022-08-25T09:43:38;101654.19;;;29.19;38.75
22481;BME280;11407;56.964;-2.212;2022-08-25T09:46:13;101669.38;;;29.33;38.04
22481;BME280;11407;56.964;-2.212;2022-08-25T09:48:48;101659.44;;;29.64;37.08
22481;BME280;11407;56.964;-2.212;2022-08-25T09:51:25;101654.66;;;29.59;38.19
22481;BME280;11407;56.964;-2.212;2022-08-25T09:56:55;101661.00;;;29.84;38.16
22481;BME280;11407;56.964;-2.212;2022-08-25T09:59:33;101665.75;;;29.95;37.45
22481;BME280;11407;56.964;-2.212;2022-08-25T10:02:04;101659.28;;;29.90;37.43
22481;BME280;11407;56.964;-2.212;2022-08-25T10:04:40;101658.00;;;29.99;37.82
22481;BME280;11407;56.964;-2.212;2022-08-25T10:10:05;101659.59;;;30.37;37.17
22481;BME280;11407;56.964;-2.212;2022-08-25T10:12:41;101656.94;;;30.31;37.17
22481;BME280;11407;56.964;-2.212;2022-08-25T10:15:31;101650.53;;;30.19;35.61
22481;BME280;11407;56.964;-2.212;2022-08-25T10:18:26;101640.19;;;30.58;36.01
22481;BME280;11407;56.964;-2.212;2022-08-25T10:21:02;101638.13;;;30.53;36.81
22481;BME280;11407;56.964;-2.212;2022-08-25T10:23:29;101622.59;;;30.78;36.13
22481;BME280;11407;56.964;-2.212;2022-08-25T10:26:02;101614.56;;;30.83;36.21
22481;BME280;11407;56.964;-2.212;2022-08-25T10:29:05;101610.84;;;30.78;36.43
22481;BME280;11407;56.964;-2.212;2022-08-25T10:31:35;101611.78;;;30.90;35.46
22481;BME280;11407;56.964;-2.212;2022-08-25T10:45:20;101608.00;;;31.27;35.29
22481;BME280;11407;56.964;-2.212;2022-08-25T10:48:17;101607.03;;;31.50;34.58
22481;BME280;11407;56.964;-2.212;2022-08-25T10:50:56;101601.00;;;31.48;34.86
22481;BME280;11407;56.964;-2.212;2022-08-25T11:01:43;101607.09;;;31.62;34.11
22481;BME280;11407;56.964;-2.212;2022-08-25T11:09:48;101599.44;;;31.70;33.50
22481;BME280;11407;56.964;-2.212;2022-08-25T11:12:18;101604.91;;;31.70;33.46
22481;BME280;11407;56.964;-2.212;2022-08-25T11:17:25;101603.50;;;31.79;31.75
22481;BME280;11407;56.964;-2.212;2022-08-25T11:20:00;101603.63;;;31.84;31.41
22481;BME280;11407;56.964;-2.212;2022-08-25T11:25:25;101606.09;;;31.74;30.57
22481;BME280;11407;56.964;-2.212;2022-08-25T11:28:13;101595.44;;;31.84;31.51
22481;BME280;11407;56.964;-2.212;2022-08-25T11:30:40;101587.53;;;31.94;32.35
22481;BME280;11407;56.964;-2.212;2022-08-25T11:33:06;101579.22;;;32.01;32.27
22481;BME280;11407;56.964;-2.212;2022-08-25T11:35:43;101582.53;;;31.91;31.68
22481;BME280;11407;56.964;-2.212;2022-08-25T11:41:35;101572.38;;;32.10;32.46
22481;BME280;11407;56.964;-2.212;2022-08-25T11:51:48;101590.56;;;32.27;31.27
22481;BME280;11407;56.964;-2.212;2022-08-25T11:54:27;101581.78;;;32.36;29.44
22481;BME280;11407;56.964;-2.212;2022-08-25T11:57:09;101583.09;;;32.45;31.08
22481;BME280;11407;56.964;-2.212;2022-08-25T12:02:47;101584.75;;;32.58;30.62
22481;BME280;11407;56.964;-2.212;2022-08-25T12:10:23;101571.50;;;32.61;30.22
22481;BME280;11407;56.964;-2.212;2022-08-25T12:18:07;101579.63;;;32.50;29.84
22481;BME280;11407;56.964;-2.212;2022-08-25T12:23:31;101587.38;;;32.53;29.39
22481;BME280;11407;56.964;-2.212;2022-08-25T12:29:10;101581.31;;;32.85;28.89
22481;BME280;11407;56.964;-2.212;2022-08-25T12:31:55;101578.19;;;32.82;30.10
22481;BME280;11407;56.964;-2.212;2022-08-25T12:37:23;101568.31;;;33.04;30.05
22481;BME280;11407;56.964;-2.212;2022-08-25T12:42:39;101568.06;;;33.05;29.87
22481;BME280;11407;56.964;-2.212;2022-08-25T12:47:47;101556.59;;;32.92;29.76
22481;BME280;11407;56.964;-2.212;2022-08-25T12:50:37;101564.41;;;32.88;28.44
22481;BME280;11407;56.964;-2.212;2022-08-25T12:53:16;101558.50;;;32.80;28.59
22481;BME280;11407;56.964;-2.212;2022-08-25T12:55:48;101548.41;;;32.80;28.07
22481;BME280;11407;56.964;-2.212;2022-08-25T12:58:15;101554.00;;;32.85;28.97
22481;BME280;11407;56.964;-2.212;2022-08-25T13:03:57;101547.28;;;33.04;29.27
22481;BME280;11407;56.964;-2.212;2022-08-25T13:09:59;101553.91;;;33.19;29.47
22481;BME280;11407;56.964;-2.212;2022-08-25T13:15:04;101553.31;;;33.06;29.13
22481;BME280;11407;56.964;-2.212;2022-08-25T13:17:32;101548.69;;;33.07;29.19
22481;BME280;11407;56.964;-2.212;2022-08-25T13:20:30;101540.63;;;33.12;29.63
22481;BME280;11407;56.964;-2.212;2022-08-25T13:22:57;101536.69;;;33.19;28.83
22481;BME280;11407;56.964;-2.212;2022-08-25T13:25:26;101535.59;;;33.09;29.69
22481;BME280;11407;56.964;-2.212;2022-08-25T13:27:56;101537.50;;;33.19;28.69
22481;BME280;11407;56.964;-2.212;2022-08-25T13:30:34;101534.63;;;33.26;27.40
22481;BME280;11407;56.964;-2.212;2022-08-25T13:33:20;101531.25;;;33.35;27.39
22481;BME280;11407;56.964;-2.212;2022-08-25T13:35:52;101536.72;;;33.35;28.56
22481;BME280;11407;56.964;-2.212;2022-08-25T13:38:38;101536.25;;;33.38;28.51
22481;BME280;11407;56.964;-2.212;2022-08-25T13:41:04;101527.19;;;33.38;27.82
22481;BME280;11407;56.964;-2.212;2022-08-25T13:43:30;101528.97;;;33.44;28.41
22481;BME280;11407;56.964;-2.212;2022-08-25T13:45:56;101527.81;;;33.56;28.15
22481;BME280;11407;56.964;-2.212;2022-08-25T13:48:34;101535.28;;;33.61;27.54
22481;BME280;11407;56.964;-2.212;2022-08-25T13:53:54;101525.97;;;33.73;27.32
22481;BME280;11407;56.964;-2.212;2022-08-25T13:56:28;101519.56;;;33.68;27.21
22481;BME280;11407;56.964;-2.212;2022-08-25T13:58:56;101527.69;;;33.79;27.76
22481;BME280;11407;56.964;-2.212;2022-08-25T14:01:36;101514.75;;;33.91;27.50
22481;BME280;11407;56.964;-2.212;2022-08-25T14:04:29;101525.69;;;33.91;27.58
22481;BME280;11407;56.964;-2.212;2022-08-25T14:07:12;101523.63;;;33.82;26.65
22481;BME280;11407;56.964;-2.212;2022-08-25T14:17:25;101515.34;;;33.93;27.88
22481;BME280;11407;56.964;-2.212;2022-08-25T14:19:50;101527.63;;;33.91;28.67
22481;BME280;11407;56.964;-2.212;2022-08-25T14:22:16;101517.59;;;33.96;28.74
22481;BME280;11407;56.964;-2.212;2022-08-25T14:24:41;101521.41;;;33.95;28.78
22481;BME280;11407;56.964;-2.212;2022-08-25T14:27:08;101512.28;;;33.90;28.60
22481;BME280;11407;56.964;-2.212;2022-08-25T14:29:33;101513.34;;;34.05;28.73
22481;BME280;11407;56.964;-2.212;2022-08-25T14:31:59;101524.53;;;34.04;28.51
22481;BME280;11407;56.964;-2.212;2022-08-25T14:34:28;101527.84;;;34.06;28.52
22481;BME280;11407;56.964;-2.212;2022-08-25T14:36:55;101514.91;;;34.01;29.13
22481;BME280;11407;56.964;-2.212;2022-08-25T14:39:21;101517.16;;;34.04;29.13
22481;BME280;11407;56.964;-2.212;2022-08-25T14:41:47;101510.97;;;34.09;29.08
22481;BME280;11407;56.964;-2.212;2022-08-25T14:44:13;101509.25;;;34.08;29.02
22481;BME280;11407;56.964;-2.212;2022-08-25T14:46:48;101516.84;;;34.01;28.51
22481;BME280;11407;56.964;-2.212;2022-08-25T14:49:19;101513.41;;;33.94;29.02
22481;BME280;11407;56.964;-2.212;2022-08-25T14:51:47;101507.34;;;33.92;29.48
22481;BME280;11407;56.964;-2.212;2022-08-25T14:54:14;101505.97;;;33.89;29.14